sensor_id;sensor_type;location;lat;lon;timestamp;pressure;altitude;pressure_sealevel;temperature;humidity
57990;BME280;58373;51.824;5.564;2023-04-19T00:01:59;102662.34;;;8.83;79.46
57990;BME280;58373;51.824;5.564;2023-04-19T00:04:24;102667.53;;;8.83;79.73
57990;BME280;58373;51.824;5.564;2023-04-19T00:06:49;102655.44;;;8.84;79.55
57990;BME280;58373;51.824;5.564;2023-04-19T00:09:15;102661.47;;;8.83;79.55
57990;BME280;58373;51.824;5.564;2023-04-19T00:11:41;102663.19;;;8.84;79.80
57990;BME280;58373;51.824;5.564;2023-04-19T00:14:06;102664.97;;;8.82;79.36
57990;BME280;58373;51.824;5.564;2023-04-19T00:16:31;102669.31;;;8.81;80.00
57990;BME280;58373;51.824;5.564;2023-04-19T00:18:56;102659.88;;;8.80;79.81
57990;BME280;58373;51.824;5.564;2023-04-19T00:21:22;102658.97;;;8.81;79.78
57990;BME280;58373;51.824;5.564;2023-04-19T00:23:47;102652.13;;;8.80;79.96
57990;BME280;58373;51.824;5.564;2023-04-19T00:26:12;102650.28;;;8.82;80.12
57990;BME280;58373;51.824;5.564;2023-04-19T00:28:39;102656.19;;;8.86;79.77
57990;BME280;58373;51.824;5.564;2023-04-19T00:31:04;102642.34;;;8.87;79.79
57990;BME280;58373;51.824;5.564;2023-04-19T00:33:29;102647.78;;;8.81;79.87
57990;BME280;58373;51.824;5.564;2023-04-19T00:35:55;102640.09;;;8.79;79.87
57990;BME280;58373;51.824;5.564;2023-04-19T00:38:20;102646.81;;;8.83;79.55
57990;BME280;58373;51.824;5.564;2023-04-19T00:40:45;102639.38;;;8.75;80.33
57990;BME280;58373;51.824;5.564;2023-04-19T00:43:11;102640.94;;;8.80;79.89
57990;BME280;58373;51.824;5.564;2023-04-19T00:45:40;102635.75;;;8.80;80.18
57990;BME280;58373;51.824;5.564;2023-04-19T00:48:05;102628.19;;;8.75;80.48
57990;BME280;58373;51.824;5.564;2023-04-19T00:50:31;102630.66;;;8.78;80.50
57990;BME280;58373;51.824;5.564;2023-04-19T00:52:57;102624.69;;;8.76;80.53
57990;BME280;58373;51.824;5.564;2023-04-19T00:55:22;102628.19;;;8.75;80.72
57990;BME280;58373;51.824;5.564;2023-04-19T00:57:48;102627.25;;;8.77;80.74
57990;BME280;58373;51.824;5.564;2023-04-19T01:00:15;102622.19;;;8.74;80.90
57990;BME280;58373;51.824;5.564;2023-04-19T01:02:41;102619.53;;;8.76;80.80
57990;BME280;58373;51.824;5.564;2023-04-19T01:05:06;102617.72;;;8.78;80.97
57990;BME280;58373;51.824;5.564;2023-04-19T01:07:32;102627.81;;;8.84;80.88
57990;BME280;58373;51.824;5.564;2023-04-19T01:09:57;102617.84;;;8.75;81.00
57990;BME280;58373;51.824;5.564;2023-04-19T01:12:22;102621.34;;;8.74;81.65
57990;BME280;58373;51.824;5.564;2023-04-19T01:14:48;102624.84;;;8.73;81.90
57990;BME280;58373;51.824;5.564;2023-04-19T01:17:14;102628.34;;;8.72;82.26
57990;BME280;58373;51.824;5.564;2023-04-19T01:19:40;102622.19;;;8.74;81.46
57990;BME280;58373;51.824;5.564;2023-04-19T01:22:06;102626.53;;;8.74;81.55
57990;BME280;58373;51.824;5.564;2023-04-19T01:24:32;102621.47;;;8.71;82.44
57990;BME280;58373;51.824;5.564;2023-04-19T01:26:57;102623.94;;;8.74;82.01
57990;BME280;58373;51.824;5.564;2023-04-19T01:29:22;102623.19;;;8.72;81.97
57990;BME280;58373;51.824;5.564;2023-04-19T01:31:48;102624.16;;;8.69;82.37
57990;BME280;58373;51.824;5.564;2023-04-19T01:34:17;102616.31;;;8.71;81.94
57990;BME280;58373;51.824;5.564;2023-04-19T01:36:42;102612.97;;;8.69;82.55
57990;BME280;58373;51.824;5.564;2023-04-19T01:39:07;102614.50;;;8.73;82.53
57990;BME280;58373;51.824;5.564;2023-04-19T01:41:32;102618.97;;;8.69;83.03
57990;BME280;58373;51.824;5.564;2023-04-19T01:43:58;102614.91;;;8.64;83.53
57990;BME280;58373;51.824;5.564;2023-04-19T01:46:24;102605.47;;;8.63;83.54
57990;BME280;58373;51.824;5.564;2023-04-19T01:48:49;102609.75;;;8.64;83.38
57990;BME280;58373;51.824;5.564;2023-04-19T01:51:15;102617.69;;;8.59;83.50
57990;BME280;58373;51.824;5.564;2023-04-19T01:53:41;102614.16;;;8.62;83.76
57990;BME280;58373;51.824;5.564;2023-04-19T01:56:06;102611.69;;;8.59;83.95
57990;BME280;58373;51.824;5.564;2023-04-19T01:58:31;102618.69;;;8.57;83.70
57990;BME280;58373;51.824;5.564;2023-04-19T02:00:56;102613.50;;;8.57;84.29
57990;BME280;58373;51.824;5.564;2023-04-19T02:03:22;102619.59;;;8.56;84.69
57990;BME280;58373;51.824;5.564;2023-04-19T02:05:47;102619.53;;;8.57;84.38
57990;BME280;58373;51.824;5.564;2023-04-19T02:08:12;102617.94;;;8.55;84.47
57990;BME280;58373;51.824;5.564;2023-04-19T02:10:37;102611.97;;;8.52;85.13
57990;BME280;58373;51.824;5.564;2023-04-19T02:13:02;102609.28;;;8.54;85.08
57990;BME280;58373;51.824;5.564;2023-04-19T02:15:28;102617.13;;;8.52;84.76
57990;BME280;58373;51.824;5.564;2023-04-19T02:17:53;102603.44;;;8.50;85.17
57990;BME280;58373;51.824;5.564;2023-04-19T02:20:18;102613.78;;;8.50;85.32
57990;BME280;58373;51.824;5.564;2023-04-19T02:22:44;102606.09;;;8.49;85.40
57990;BME280;58373;51.824;5.564;2023-04-19T02:25:09;102605.19;;;8.50;85.33
57990;BME280;58373;51.824;5.564;2023-04-19T02:27:34;102608.75;;;8.47;84.88
57990;BME280;58373;51.824;5.564;2023-04-19T02:30:00;102602.88;;;8.44;85.26
57990;BME280;58373;51.824;5.564;2023-04-19T02:32:25;102614.06;;;8.44;85.43
57990;BME280;58373;51.824;5.564;2023-04-19T02:34:51;102611.53;;;8.43;85.73
57990;BME280;58373;51.824;5.564;2023-04-19T02:37:16;102615.84;;;8.42;86.33
57990;BME280;58373;51.824;5.564;2023-04-19T02:39:42;102614.09;;;8.43;86.23
57990;BME280;58373;51.824;5.564;2023-04-19T02:42:07;102605.66;;;8.39;86.10
57990;BME280;58373;51.824;5.564;2023-04-19T02:44:32;102615.84;;;8.42;85.98
57990;BME280;58373;51.824;5.564;2023-04-19T02:46:57;102620.16;;;8.43;85.89
57990;BME280;58373;51.824;5.564;2023-04-19T02:49:23;102617.56;;;8.43;86.29
57990;BME280;58373;51.824;5.564;2023-04-19T02:51:49;102617.56;;;8.43;86.05
57990;BME280;58373;51.824;5.564;2023-04-19T02:54:14;102617.41;;;8.46;85.35
57990;BME280;58373;51.824;5.564;2023-04-19T02:56:39;102615.84;;;8.42;86.22
57990;BME280;58373;51.824;5.564;2023-04-19T02:59:05;102613.22;;;8.44;85.63
57990;BME280;58373;51.824;5.564;2023-04-19T03:01:30;102615.25;;;8.37;86.63
57990;BME280;58373;51.824;5.564;2023-04-19T03:03:56;102612.66;;;8.37;85.97
57990;BME280;58373;51.824;5.564;2023-04-19T03:06:21;102616.91;;;8.38;86.03
57990;BME280;58373;51.824;5.564;2023-04-19T03:08:46;102620.41;;;8.37;86.20
57990;BME280;58373;51.824;5.564;2023-04-19T03:11:13;102604.06;;;8.35;86.26
57990;BME280;58373;51.824;5.564;2023-04-19T03:13:38;102616.13;;;8.36;86.09
57990;BME280;58373;51.824;5.564;2023-04-19T03:16:04;102615.28;;;8.36;86.34
57990;BME280;58373;51.824;5.564;2023-04-19T03:18:30;102613.56;;;8.35;86.51
57990;BME280;58373;51.824;5.564;2023-04-19T03:20:55;102606.75;;;8.34;86.35
57990;BME280;58373;51.824;5.564;2023-04-19T03:23:20;102605.91;;;8.33;86.10
57990;BME280;58373;51.824;5.564;2023-04-19T03:25:45;102601.69;;;8.31;86.32
57990;BME280;58373;51.824;5.564;2023-04-19T03:28:11;102606.94;;;8.29;86.18
57990;BME280;58373;51.824;5.564;2023-04-19T03:30:36;102604.34;;;8.29;85.93
57990;BME280;58373;51.824;5.564;2023-04-19T03:33:01;102614.84;;;8.26;86.01
57990;BME280;58373;51.824;5.564;2023-04-19T03:35:26;102607.97;;;8.25;85.80
57990;BME280;58373;51.824;5.564;2023-04-19T03:37:53;102606.28;;;8.24;86.13
57990;BME280;58373;51.824;5.564;2023-04-19T03:40:18;102608.09;;;8.22;86.00
57990;BME280;58373;51.824;5.564;2023-04-19T03:42:43;102603.88;;;8.19;85.64
57990;BME280;58373;51.824;5.564;2023-04-19T03:45:09;102599.72;;;8.17;86.19
57990;BME280;58373;51.824;5.564;2023-04-19T03:47:34;102603.22;;;8.16;86.38
57990;BME280;58373;51.824;5.564;2023-04-19T03:50:00;102603.22;;;8.16;86.19
57990;BME280;58373;51.824;5.564;2023-04-19T03:52:25;102600.81;;;8.11;86.16
57990;BME280;58373;51.824;5.564;2023-04-19T03:54:51;102603.47;;;8.10;86.21
57990;BME280;58373;51.824;5.564;2023-04-19T03:57:16;102605.97;;;8.11;86.54
57990;BME280;58373;51.824;5.564;2023-04-19T03:59:41;102600.09;;;8.08;85.96
57990;BME280;58373;51.824;5.564;2023-04-19T04:02:07;102604.38;;;8.09;86.85
57990;BME280;58373;51.824;5.564;2023-04-19T04:04:32;102602.69;;;8.08;86.69
57990;BME280;58373;51.824;5.564;2023-04-19T04:06:57;102606.09;;;8.08;86.38
57990;BME280;58373;51.824;5.564;2023-04-19T04:09:22;102613.91;;;8.07;86.18
57990;BME280;58373;51.824;5.564;2023-04-19T04:11:48;102617.41;;;8.06;86.71
57990;BME280;58373;51.824;5.564;2023-04-19T04:14:13;102603.59;;;8.07;85.74
57990;BME280;58373;51.824;5.564;2023-04-19T04:16:39;102608.00;;;8.05;86.19
57990;BME280;58373;51.824;5.564;2023-04-19T04:19:04;102598.56;;;8.04;86.34
57990;BME280;58373;51.824;5.564;2023-04-19T04:21:30;102597.72;;;8.03;86.29
57990;BME280;58373;51.824;5.564;2023-04-19T04:23:55;102596.84;;;8.03;86.10
57990;BME280;58373;51.824;5.564;2023-04-19T04:26:20;102601.97;;;8.04;86.04
57990;BME280;58373;51.824;5.564;2023-04-19T04:28:45;102604.56;;;8.04;85.87
57990;BME280;58373;51.824;5.564;2023-04-19T04:31:11;102603.72;;;8.04;85.94
57990;BME280;58373;51.824;5.564;2023-04-19T04:33:36;102608.75;;;8.07;85.78
57990;BME280;58373;51.824;5.564;2023-04-19T04:36:02;102595.19;;;8.02;85.34
57990;BME280;58373;51.824;5.564;2023-04-19T04:38:27;102600.34;;;8.02;85.29
57990;BME280;58373;51.824;5.564;2023-04-19T04:40:54;102595.25;;;8.00;85.21
57990;BME280;58373;51.824;5.564;2023-04-19T04:43:20;102592.78;;;7.97;84.31
57990;BME280;58373;51.824;5.564;2023-04-19T04:45:45;102595.34;;;7.98;83.95
57990;BME280;58373;51.824;5.564;2023-04-19T04:48:11;102590.28;;;7.95;83.79
57990;BME280;58373;51.824;5.564;2023-04-19T04:50:36;102603.38;;;7.91;83.14
57990;BME280;58373;51.824;5.564;2023-04-19T04:53:01;102601.03;;;7.86;83.45
57990;BME280;58373;51.824;5.564;2023-04-19T04:55:26;102607.84;;;7.87;82.99
57990;BME280;58373;51.824;5.564;2023-04-19T04:57:52;102599.31;;;7.85;82.38
57990;BME280;58373;51.824;5.564;2023-04-19T05:00:17;102604.47;;;7.85;82.75
57990;BME280;58373;51.824;5.564;2023-04-19T05:02:42;102608.13;;;7.81;82.74
57990;BME280;58373;51.824;5.564;2023-04-19T05:05:07;102613.28;;;7.81;82.71
57990;BME280;58373;51.824;5.564;2023-04-19T05:07:35;102612.56;;;7.78;81.95
57990;BME280;58373;51.824;5.564;2023-04-19T05:10:00;102611.72;;;7.77;82.34
57990;BME280;58373;51.824;5.564;2023-04-19T05:12:25;102611.84;;;7.74;81.96
57990;BME280;58373;51.824;5.564;2023-04-19T05:14:50;102620.38;;;7.76;81.52
57990;BME280;58373;51.824;5.564;2023-04-19T05:17:15;102618.81;;;7.72;80.87
57990;BME280;58373;51.824;5.564;2023-04-19T05:19:41;102611.06;;;7.72;81.44
57990;BME280;58373;51.824;5.564;2023-04-19T05:22:06;102610.31;;;7.70;81.28
57990;BME280;58373;51.824;5.564;2023-04-19T05:24:31;102622.31;;;7.71;81.42
57990;BME280;58373;51.824;5.564;2023-04-19T05:26:56;102613.00;;;7.67;81.07
57990;BME280;58373;51.824;5.564;2023-04-19T05:29:21;102621.56;;;7.67;80.77
57990;BME280;58373;51.824;5.564;2023-04-19T05:31:47;102616.47;;;7.66;80.29
57990;BME280;58373;51.824;5.564;2023-04-19T05:34:12;102620.75;;;7.67;80.20
57990;BME280;58373;51.824;5.564;2023-04-19T05:36:37;102624.22;;;7.66;80.53
57990;BME280;58373;51.824;5.564;2023-04-19T05:39:02;102632.75;;;7.68;80.49
57990;BME280;58373;51.824;5.564;2023-04-19T05:41:27;102629.41;;;7.66;80.44
57990;BME280;58373;51.824;5.564;2023-04-19T05:43:53;102629.28;;;7.69;78.89
57990;BME280;58373;51.824;5.564;2023-04-19T05:46:18;102623.38;;;7.65;79.48
57990;BME280;58373;51.824;5.564;2023-04-19T05:48:43;102634.56;;;7.66;79.27
57990;BME280;58373;51.824;5.564;2023-04-19T05:51:08;102631.06;;;7.67;78.26
57990;BME280;58373;51.824;5.564;2023-04-19T05:53:33;102623.28;;;7.68;77.10
57990;BME280;58373;51.824;5.564;2023-04-19T05:55:59;102622.31;;;7.71;77.94
57990;BME280;58373;51.824;5.564;2023-04-19T05:58:24;102623.97;;;7.72;77.67
57990;BME280;58373;51.824;5.564;2023-04-19T06:00:50;102630.81;;;7.73;78.03
57990;BME280;58373;51.824;5.564;2023-04-19T06:03:15;102622.97;;;7.76;77.95
57990;BME280;58373;51.824;5.564;2023-04-19T06:05:40;102627.81;;;7.84;77.15
57990;BME280;58373;51.824;5.564;2023-04-19T06:08:05;102625.28;;;7.82;77.00
57990;BME280;58373;51.824;5.564;2023-04-19T06:10:31;102623.47;;;7.84;75.09
57990;BME280;58373;51.824;5.564;2023-04-19T06:12:56;102627.72;;;7.85;75.67
57990;BME280;58373;51.824;5.564;2023-04-19T06:15:21;102623.47;;;7.84;75.66
57990;BME280;58373;51.824;5.564;2023-04-19T06:17:46;102624.19;;;7.88;75.49
57990;BME280;58373;51.824;5.564;2023-04-19T06:20:12;102625.75;;;7.92;74.84
57990;BME280;58373;51.824;5.564;2023-04-19T06:22:41;102620.53;;;7.93;75.26
57990;BME280;58373;51.824;5.564;2023-04-19T06:25:07;102626.44;;;7.95;74.45
57990;BME280;58373;51.824;5.564;2023-04-19T06:27:32;102633.03;;;8.03;72.43
57990;BME280;58373;51.824;5.564;2023-04-19T06:29:57;102628.78;;;8.02;72.04
57990;BME280;58373;51.824;5.564;2023-04-19T06:32:24;102632.81;;;8.09;71.87
57990;BME280;58373;51.824;5.564;2023-04-19T06:34:50;102620.75;;;8.08;72.87
57990;BME280;58373;51.824;5.564;2023-04-19T06:37:15;102631.72;;;8.14;72.92
57990;BME280;58373;51.824;5.564;2023-04-19T06:39:40;102618.56;;;8.19;71.06
57990;BME280;58373;51.824;5.564;2023-04-19T06:42:05;102619.22;;;8.24;69.69
57990;BME280;58373;51.824;5.564;2023-04-19T06:44:31;102628.59;;;8.27;69.23
57990;BME280;58373;51.824;5.564;2023-04-19T06:46:56;102626.59;;;8.33;70.92
57990;BME280;58373;51.824;5.564;2023-04-19T06:49:21;102631.75;;;8.33;70.69
57990;BME280;58373;51.824;5.564;2023-04-19T06:51:46;102628.16;;;8.37;69.40
57990;BME280;58373;51.824;5.564;2023-04-19T06:54:12;102639.00;;;8.45;69.27
57990;BME280;58373;51.824;5.564;2023-04-19T06:56:44;102638.94;;;8.47;68.36
57990;BME280;58373;51.824;5.564;2023-04-19T06:59:10;102637.97;;;8.49;67.82
57990;BME280;58373;51.824;5.564;2023-04-19T07:01:36;102641.31;;;8.51;67.46
57990;BME280;58373;51.824;5.564;2023-04-19T07:04:01;102640.28;;;8.56;66.99
57990;BME280;58373;51.824;5.564;2023-04-19T07:06:27;102642.03;;;8.55;66.45
57990;BME280;58373;51.824;5.564;2023-04-19T07:08:53;102635.88;;;8.58;64.75
57990;BME280;58373;51.824;5.564;2023-04-19T07:11:18;102635.88;;;8.58;63.26
57990;BME280;58373;51.824;5.564;2023-04-19T07:13:44;102635.81;;;8.59;63.97
57990;BME280;58373;51.824;5.564;2023-04-19T07:16:09;102640.78;;;8.64;63.35
57990;BME280;58373;51.824;5.564;2023-04-19T07:18:34;102634.50;;;8.69;63.82
57990;BME280;58373;51.824;5.564;2023-04-19T07:21:00;102646.38;;;8.73;63.75
57990;BME280;58373;51.824;5.564;2023-04-19T07:23:25;102645.28;;;8.79;63.65
57990;BME280;58373;51.824;5.564;2023-04-19T07:25:50;102638.28;;;8.81;62.01
57990;BME280;58373;51.824;5.564;2023-04-19T07:28:16;102648.91;;;8.94;62.30
57990;BME280;58373;51.824;5.564;2023-04-19T07:30:41;102646.25;;;8.95;61.92
57990;BME280;58373;51.824;5.564;2023-04-19T07:33:09;102654.16;;;8.92;60.96
57990;BME280;58373;51.824;5.564;2023-04-19T07:35:35;102654.06;;;8.94;60.96
57990;BME280;58373;51.824;5.564;2023-04-19T07:38:02;102640.94;;;8.98;60.84
57990;BME280;58373;51.824;5.564;2023-04-19T07:40:27;102640.25;;;9.14;60.65
57990;BME280;58373;51.824;5.564;2023-04-19T07:42:54;102633.50;;;9.10;61.40
57990;BME280;58373;51.824;5.564;2023-04-19T07:45:19;102643.59;;;9.16;58.02
57990;BME280;58373;51.824;5.564;2023-04-19T07:47:44;102645.13;;;9.20;59.01
57990;BME280;58373;51.824;5.564;2023-04-19T07:50:10;102644.00;;;9.25;56.23
57990;BME280;58373;51.824;5.564;2023-04-19T07:52:36;102645.13;;;9.20;56.80
57990;BME280;58373;51.824;5.564;2023-04-19T07:55:01;102644.97;;;9.23;57.52
57990;BME280;58373;51.824;5.564;2023-04-19T07:57:26;102648.34;;;9.25;57.60
57990;BME280;58373;51.824;5.564;2023-04-19T07:59:52;102643.00;;;9.28;57.16
57990;BME280;58373;51.824;5.564;2023-04-19T08:02:21;102647.13;;;9.32;57.36
57990;BME280;58373;51.824;5.564;2023-04-19T08:04:47;102643.78;;;9.30;54.83
57990;BME280;58373;51.824;5.564;2023-04-19T08:07:13;102640.28;;;9.31;56.18
57990;BME280;58373;51.824;5.564;2023-04-19T08:09:38;102644.41;;;9.35;56.52
57990;BME280;58373;51.824;5.564;2023-04-19T08:12:04;102646.22;;;9.33;56.63
57990;BME280;58373;51.824;5.564;2023-04-19T08:14:29;102642.50;;;9.39;56.90
57990;BME280;58373;51.824;5.564;2023-04-19T08:16:54;102649.00;;;9.47;56.63
57990;BME280;58373;51.824;5.564;2023-04-19T08:19:20;102640.16;;;9.51;55.15
57990;BME280;58373;51.824;5.564;2023-04-19T08:21:45;102650.38;;;9.54;54.69
57990;BME280;58373;51.824;5.564;2023-04-19T08:24:10;102643.38;;;9.56;54.23
57990;BME280;58373;51.824;5.564;2023-04-19T08:26:35;102640.13;;;9.70;53.10
57990;BME280;58373;51.824;5.564;2023-04-19T08:29:02;102646.75;;;9.58;53.10
57990;BME280;58373;51.824;5.564;2023-04-19T08:31:28;102647.63;;;9.57;55.00
57990;BME280;58373;51.824;5.564;2023-04-19T08:33:53;102644.16;;;9.58;54.38
57990;BME280;58373;51.824;5.564;2023-04-19T08:36:18;102633.63;;;9.62;54.06
57990;BME280;58373;51.824;5.564;2023-04-19T08:38:43;102637.59;;;9.69;55.26
57990;BME280;58373;51.824;5.564;2023-04-19T08:41:10;102636.41;;;9.76;55.15
57990;BME280;58373;51.824;5.564;2023-04-19T08:43:35;102640.19;;;9.86;55.39
57990;BME280;58373;51.824;5.564;2023-04-19T08:46:01;102644.31;;;9.90;53.50
57990;BME280;58373;51.824;5.564;2023-04-19T08:48:26;102636.94;;;10.00;52.44
57990;BME280;58373;51.824;5.564;2023-04-19T08:50:53;102635.31;;;9.97;53.47
57990;BME280;58373;51.824;5.564;2023-04-19T08:53:19;102643.09;;;9.97;52.82
57990;BME280;58373;51.824;5.564;2023-04-19T08:55:45;102634.41;;;9.98;52.52
57990;BME280;58373;51.824;5.564;2023-04-19T08:58:10;102634.72;;;9.92;54.05
57990;BME280;58373;51.824;5.564;2023-04-19T09:00:38;102636.94;;;10.00;54.61
57990;BME280;58373;51.824;5.564;2023-04-19T09:03:05;102634.13;;;10.04;52.07
57990;BME280;58373;51.824;5.564;2023-04-19T09:05:31;102629.75;;;10.05;52.56
57990;BME280;58373;51.824;5.564;2023-04-19T09:08:10;102635.31;;;10.15;52.89
57990;BME280;58373;51.824;5.564;2023-04-19T09:10:44;102635.47;;;10.11;51.77
57990;BME280;58373;51.824;5.564;2023-04-19T09:13:17;102628.94;;;10.04;51.17
57990;BME280;58373;51.824;5.564;2023-04-19T09:15:42;102619.09;;;10.11;52.53
57990;BME280;58373;51.824;5.564;2023-04-19T09:18:09;102624.34;;;10.27;50.56
57990;BME280;58373;51.824;5.564;2023-04-19T09:20:35;102629.69;;;10.24;51.68
57990;BME280;58373;51.824;5.564;2023-04-19T09:23:04;102617.47;;;10.26;51.51
57990;BME280;58373;51.824;5.564;2023-04-19T09:25:30;102627.38;;;10.35;51.87
57990;BME280;58373;51.824;5.564;2023-04-19T09:28:07;102616.00;;;10.37;52.15
57990;BME280;58373;51.824;5.564;2023-04-19T09:30:32;102625.91;;;10.47;50.46
57990;BME280;58373;51.824;5.564;2023-04-19T09:32:57;102626.75;;;10.47;48.56
57990;BME280;58373;51.824;5.564;2023-04-19T09:35:24;102626.75;;;10.47;47.34
57990;BME280;58373;51.824;5.564;2023-04-19T09:38:03;102623.72;;;10.39;49.14
57990;BME280;58373;51.824;5.564;2023-04-19T09:40:29;102623.53;;;10.42;48.18
57990;BME280;58373;51.824;5.564;2023-04-19T09:42:54;102613.16;;;10.42;49.61
57990;BME280;58373;51.824;5.564;2023-04-19T09:45:19;102613.53;;;10.52;47.15
57990;BME280;58373;51.824;5.564;2023-04-19T09:47:45;102615.28;;;10.51;45.92
57990;BME280;58373;51.824;5.564;2023-04-19T09:50:24;102634.81;;;10.58;45.88
57990;BME280;58373;51.824;5.564;2023-04-19T09:52:49;102616.53;;;10.44;47.25
57990;BME280;58373;51.824;5.564;2023-04-19T09:55:16;102628.91;;;10.55;45.80
57990;BME280;58373;51.824;5.564;2023-04-19T09:57:42;102628.34;;;10.50;45.78
57990;BME280;58373;51.824;5.564;2023-04-19T10:00:08;102614.50;;;10.49;45.67
57990;BME280;58373;51.824;5.564;2023-04-19T10:02:37;102615.63;;;10.45;45.90
57990;BME280;58373;51.824;5.564;2023-04-19T10:05:03;102627.56;;;10.48;45.63
57990;BME280;58373;51.824;5.564;2023-04-19T10:07:28;102617.28;;;10.46;47.89
57990;BME280;58373;51.824;5.564;2023-04-19T10:09:55;102628.88;;;10.56;47.27
57990;BME280;58373;51.824;5.564;2023-04-19T10:12:22;102616.31;;;10.64;46.30
57990;BME280;58373;51.824;5.564;2023-04-19T10:14:48;102621.06;;;10.72;45.46
57990;BME280;58373;51.824;5.564;2023-04-19T10:17:13;102611.13;;;10.64;45.11
57990;BME280;58373;51.824;5.564;2023-04-19T10:19:39;102620.75;;;10.62;45.01
57990;BME280;58373;51.824;5.564;2023-04-19T10:22:04;102623.03;;;10.69;44.99
57990;BME280;58373;51.824;5.564;2023-04-19T10:24:32;102609.13;;;10.70;46.23
57990;BME280;58373;51.824;5.564;2023-04-19T10:32:13;102609.22;;;10.84;45.44
57990;BME280;58373;51.824;5.564;2023-04-19T10:34:38;102607.53;;;10.83;46.15
57990;BME280;58373;51.824;5.564;2023-04-19T10:37:04;102607.38;;;10.86;46.35
57990;BME280;58373;51.824;5.564;2023-04-19T10:39:39;102610.22;;;10.97;46.24
57990;BME280;58373;51.824;5.564;2023-04-19T10:42:05;102598.19;;;10.96;44.43
57990;BME280;58373;51.824;5.564;2023-04-19T10:44:30;102599.66;;;11.00;46.14
57990;BME280;58373;51.824;5.564;2023-04-19T10:46:55;102602.50;;;11.11;44.78
57990;BME280;58373;51.824;5.564;2023-04-19T10:49:22;102622.78;;;11.21;46.40
57990;BME280;58373;51.824;5.564;2023-04-19T10:51:51;102596.63;;;11.24;44.51
57990;BME280;58373;51.824;5.564;2023-04-19T10:54:31;102590.91;;;11.33;45.04
57990;BME280;58373;51.824;5.564;2023-04-19T10:59:30;102582.16;;;11.50;44.96
57990;BME280;58373;51.824;5.564;2023-04-19T11:01:56;102576.28;;;11.46;44.61
57990;BME280;58373;51.824;5.564;2023-04-19T11:07:00;102577.09;;;11.62;42.14
57990;BME280;58373;51.824;5.564;2023-04-19T11:09:32;102572.25;;;11.56;41.98
57990;BME280;58373;51.824;5.564;2023-04-19T11:12:10;102570.97;;;11.63;41.30
57990;BME280;58373;51.824;5.564;2023-04-19T11:14:39;102569.44;;;11.45;40.55
57990;BME280;58373;51.824;5.564;2023-04-19T11:17:20;102560.53;;;11.49;41.25
57990;BME280;58373;51.824;5.564;2023-04-19T11:19:58;102569.06;;;11.51;39.70
57990;BME280;58373;51.824;5.564;2023-04-19T11:25:04;102561.38;;;11.50;40.79
57990;BME280;58373;51.824;5.564;2023-04-19T11:27:30;102561.34;;;11.65;40.63
57990;BME280;58373;51.824;5.564;2023-04-19T11:30:09;102571.16;;;11.75;40.19
57990;BME280;58373;51.824;5.564;2023-04-19T11:32:35;102540.53;;;11.65;42.50
57990;BME280;58373;51.824;5.564;2023-04-19T11:35:04;102536.28;;;11.79;42.31
57990;BME280;58373;51.824;5.564;2023-04-19T11:37:33;102547.84;;;11.89;42.18
57990;BME280;58373;51.824;5.564;2023-04-19T11:39:59;102534.28;;;11.98;42.83
57990;BME280;58373;51.824;5.564;2023-04-19T11:42:24;102536.34;;;12.07;40.61
57990;BME280;58373;51.824;5.564;2023-04-19T11:44:50;102515.16;;;12.13;41.09
57990;BME280;58373;51.824;5.564;2023-04-19T11:47:16;102532.41;;;12.14;41.40
57990;BME280;58373;51.824;5.564;2023-04-19T11:49:41;102528.72;;;12.18;40.36
57990;BME280;58373;51.824;5.564;2023-04-19T11:52:06;102510.22;;;12.23;41.70
57990;BME280;58373;51.824;5.564;2023-04-19T11:54:32;102519.66;;;12.38;41.11
57990;BME280;58373;51.824;5.564;2023-04-19T11:59:22;102508.03;;;12.44;39.97
57990;BME280;58373;51.824;5.564;2023-04-19T12:01:48;102505.81;;;12.52;39.91
57990;BME280;58373;51.824;5.564;2023-04-19T12:04:13;102494.78;;;12.61;40.54
57990;BME280;58373;51.824;5.564;2023-04-19T12:06:38;102489.75;;;12.72;40.81
57990;BME280;58373;51.824;5.564;2023-04-19T12:09:05;102503.66;;;12.86;40.71
57990;BME280;58373;51.824;5.564;2023-04-19T12:11:41;102481.34;;;12.82;39.84
57990;BME280;58373;51.824;5.564;2023-04-19T12:14:07;102486.06;;;12.89;40.10
57990;BME280;58373;51.824;5.564;2023-04-19T12:16:33;102491.69;;;12.96;36.81
57990;BME280;58373;51.824;5.564;2023-04-19T12:18:58;102487.66;;;12.92;38.13
57990;BME280;58373;51.824;5.564;2023-04-19T12:21:34;102483.06;;;12.95;37.10
57990;BME280;58373;51.824;5.564;2023-04-19T12:24:00;102485.19;;;13.03;38.29
57990;BME280;58373;51.824;5.564;2023-04-19T12:26:26;102479.75;;;13.06;36.49
57990;BME280;58373;51.824;5.564;2023-04-19T12:28:52;102478.81;;;13.07;37.04
57990;BME280;58373;51.824;5.564;2023-04-19T12:31:17;102471.53;;;13.12;37.63
57990;BME280;58373;51.824;5.564;2023-04-19T12:33:44;102475.59;;;13.16;35.60
57990;BME280;58373;51.824;5.564;2023-04-19T12:36:09;102476.00;;;13.10;34.25
57990;BME280;58373;51.824;5.564;2023-04-19T12:38:35;102481.41;;;13.07;34.94
57990;BME280;58373;51.824;5.564;2023-04-19T12:41:01;102467.66;;;13.05;35.58
57990;BME280;58373;51.824;5.564;2023-04-19T12:43:26;102474.75;;;13.03;35.23
57990;BME280;58373;51.824;5.564;2023-04-19T12:45:53;102467.66;;;13.05;36.62
57990;BME280;58373;51.824;5.564;2023-04-19T12:48:19;102476.97;;;13.09;34.90
57990;BME280;58373;51.824;5.564;2023-04-19T12:50:44;102467.38;;;13.10;35.15
57990;BME280;58373;51.824;5.564;2023-04-19T12:53:09;102461.94;;;13.13;35.02
57990;BME280;58373;51.824;5.564;2023-04-19T12:55:34;102442.88;;;13.12;35.26
57990;BME280;58373;51.824;5.564;2023-04-19T12:58:00;102447.28;;;13.24;35.88
57990;BME280;58373;51.824;5.564;2023-04-19T13:00:25;102438.94;;;13.19;35.45
57990;BME280;58373;51.824;5.564;2023-04-19T13:02:50;102445.81;;;13.20;35.05
57990;BME280;58373;51.824;5.564;2023-04-19T13:05:15;102436.03;;;13.24;34.43
57990;BME280;58373;51.824;5.564;2023-04-19T13:07:41;102437.81;;;13.23;32.59